TimeEDT,TemperatureF,Dew PointF,Humidity,Sea Level PressureIn,VisibilityMPH,Wind Direction,Wind SpeedMPH,Gust SpeedMPH,PrecipitationIn,Events,Conditions,WindDirDegrees,DateUTC
12:24 AM,69.8,66.2,88,30.01,10.0,Calm,Calm,-,N/A,,Scattered Clouds,0,2012-09-05 04:24:00
12:34 AM,69.8,68.0,94,30.01,10.0,Calm,Calm,-,N/A,,Mostly Cloudy,0,2012-09-05 04:34:00
12:54 AM,70.0,68.0,93,29.94,10.0,Calm,Calm,-,N/A,,Mostly Cloudy,0,2012-09-05 04:54:00
1:54 AM,69.1,66.9,93,29.94,10.0,Calm,Calm,-,N/A,,Mostly Cloudy,0,2012-09-05 05:54:00
2:32 AM,69.8,68.0,94,30.00,10.0,Calm,Calm,-,N/A,,Overcast,0,2012-09-05 06:32:00
2:54 AM,70.0,68.0,93,29.93,10.0,SE,3.5,-,N/A,,Overcast,130,2012-09-05 06:54:00
3:15 AM,69.8,68.0,94,30.00,10.0,Calm,Calm,-,N/A,,Overcast,0,2012-09-05 07:15:00
3:54 AM,70.0,68.0,93,29.92,10.0,Calm,Calm,-,N/A,,Overcast,0,2012-09-05 07:54:00
4:25 AM,69.8,66.2,88,29.98,10.0,Calm,Calm,-,N/A,,Mostly Cloudy,0,2012-09-05 08:25:00
4:54 AM,69.1,66.9,93,29.90,10.0,SE,3.5,-,N/A,,Scattered Clouds,140,2012-09-05 08:54:00
5:24 AM,69.8,66.2,88,29.99,10.0,South,4.6,-,N/A,,Scattered Clouds,170,2012-09-05 09:24:00
5:54 AM,68.0,66.0,93,29.92,10.0,Calm,Calm,-,N/A,,Partly Cloudy,0,2012-09-05 09:54:00
6:01 AM,68.0,66.2,94,29.99,10.0,Calm,Calm,-,N/A,,Mostly Cloudy,0,2012-09-05 10:01:00
6:54 AM,69.1,66.9,93,29.93,10.0,Calm,Calm,-,N/A,,Overcast,0,2012-09-05 10:54:00
7:54 AM,70.0,66.9,90,29.94,10.0,SE,3.5,-,N/A,,Overcast,140,2012-09-05 11:54:00
8:03 AM,69.8,66.2,88,30.02,10.0,Calm,Calm,-,N/A,,Overcast,0,2012-09-05 12:03:00
8:11 AM,69.8,66.2,88,30.02,10.0,Variable,3.5,-,N/A,,Overcast,0,2012-09-05 12:11:00
8:25 AM,71.6,66.2,83,30.02,10.0,South,3.5,-,N/A,,Overcast,190,2012-09-05 12:25:00
8:54 AM,72.0,68.0,87,29.94,10.0,SSE,4.6,-,N/A,,Overcast,160,2012-09-05 12:54:00
9:41 AM,73.4,68.0,83,30.02,10.0,South,5.8,-,N/A,,Scattered Clouds,190,2012-09-05 13:41:00
9:54 AM,73.0,66.9,81,29.94,10.0,South,6.9,-,N/A,,Partly Cloudy,190,2012-09-05 13:54:00
10:54 AM,75.9,66.9,74,29.96,10.0,Calm,Calm,-,N/A,,Overcast,0,2012-09-05 14:54:00
11:06 AM,75.2,68.0,78,30.04,10.0,Calm,Calm,-,N/A,,Overcast,0,2012-09-05 15:06:00
11:54 AM,77.0,66.9,71,29.95,10.0,Calm,Calm,-,N/A,,Overcast,0,2012-09-05 15:54:00
12:54 PM,79.0,66.9,66,29.93,10.0,Calm,Calm,-,N/A,,Mostly Cloudy,0,2012-09-05 16:54:00
1:54 PM,79.0,66.9,66,29.92,10.0,South,5.8,-,N/A,,Overcast,180,2012-09-05 17:54:00
2:54 PM,80.1,68.0,67,29.90,10.0,SSW,5.8,-,0.00,Rain,Light Rain,200,2012-09-05 18:54:00
3:09 PM,73.4,69.8,88,29.98,1.8,West,8.1,-,0.03,Rain,Heavy Rain,260,2012-09-05 19:09:00
3:17 PM,75.2,69.8,83,29.97,1.0,Calm,Calm,-,0.11,Rain,Heavy Rain,0,2012-09-05 19:17:00
3:23 PM,75.2,69.8,83,29.97,2.0,South,3.5,-,0.14,Rain,Light Rain,180,2012-09-05 19:23:00
3:31 PM,75.2,69.8,83,29.97,3.0,East,4.6,-,0.17,Rain,Heavy Rain,80,2012-09-05 19:31:00
3:54 PM,78.1,72.0,81,29.88,10.0,Calm,Calm,-,0.18,,Overcast,0,2012-09-05 19:54:00
4:22 PM,78.8,71.6,78,29.96,10.0,Variable,4.6,-,N/A,,Mostly Cloudy,0,2012-09-05 20:22:00
4:30 PM,78.8,71.6,78,29.96,10.0,Calm,Calm,-,N/A,,Overcast,0,2012-09-05 20:30:00
4:54 PM,81.0,69.1,67,29.87,10.0,South,9.2,-,N/A,,Mostly Cloudy,190,2012-09-05 20:54:00
5:03 PM,80.6,69.8,70,29.95,10.0,South,10.4,18.4,N/A,,Scattered Clouds,180,2012-09-05 21:03:00
5:54 PM,78.8,66.2,65,29.95,10.0,SSW,15.0,19.6,N/A,,Clear,200,2012-09-05 21:54:00
6:54 PM,77.0,68.0,74,29.87,10.0,South,8.1,-,N/A,,Partly Cloudy,190,2012-09-05 22:54:00
7:54 PM,75.0,68.0,79,29.89,10.0,South,11.5,-,N/A,,Overcast,180,2012-09-05 23:54:00
8:54 PM,73.9,68.0,82,29.89,10.0,South,9.2,-,N/A,,Mostly Cloudy,170,2012-09-06 00:54:00
9:54 PM,73.0,68.0,84,29.91,10.0,South,6.9,-,N/A,,Overcast,170,2012-09-06 01:54:00
10:54 PM,73.0,68.0,84,29.91,10.0,SSE,6.9,-,N/A,,Overcast,160,2012-09-06 02:54:00
11:54 PM,71.1,68.0,90,29.91,10.0,South,8.1,-,N/A,,Overcast,170,2012-09-06 03:54:00